Time;durP1;ratioP1;P1;durP2;ratioP2;P2;SDS_P1;SDS_P2;PMS_P1;PMS_P2;Temp;Humidity;BMP_temperature;BMP_pressure;BME280_temperature;BME280_humidity;BME280_pressure;Samples;Min_cycle;Max_cycle;Signal;HPM_P1;HPM_P2
2022/07/23 00:02:23;;;;;;;5.37;3.97;;;;;;;14.86;100.00;101747.78;4995349;28;20043;-86
2022/07/23 00:04:49;;;;;;;5.43;4.20;;;;;;;14.88;100.00;101746.44;4995406;28;20030;-86
2022/07/23 00:07:14;;;;;;;7.20;3.97;;;;;;;14.89;100.00;101752.63;4996358;28;20102;-86
2022/07/23 00:09:39;;;;;;;5.37;4.60;;;;;;;14.81;100.00;101752.09;4978866;28;20812;-86
2022/07/23 00:12:05;;;;;;;7.03;4.10;;;;;;;14.78;100.00;101752.59;4996122;28;20036;-86
2022/07/23 00:14:30;;;;;;;6.13;4.10;;;;;;;14.76;100.00;101759.34;5010671;28;20114;-86
2022/07/23 00:16:56;;;;;;;5.97;3.70;;;;;;;14.75;100.00;101755.03;5018768;28;20281;-86
2022/07/23 00:19:21;;;;;;;7.87;4.43;;;;;;;14.67;100.00;101751.72;5018733;28;20032;-86
2022/07/23 00:21:46;;;;;;;6.37;4.37;;;;;;;14.65;100.00;101759.25;5019227;28;20086;-86
2022/07/23 00:24:12;;;;;;;8.37;4.30;;;;;;;14.57;100.00;101754.38;5014825;28;20026;-86
2022/07/23 00:26:37;;;;;;;6.37;4.53;;;;;;;14.54;100.00;101746.81;5007464;28;20050;-86
2022/07/23 00:29:02;;;;;;;8.20;4.00;;;;;;;14.53;100.00;101745.19;4997385;28;20058;-85
2022/07/23 00:31:28;;;;;;;6.10;3.80;;;;;;;14.51;100.00;101748.16;4994770;28;20033;-86
2022/07/23 00:33:56;;;;;;;6.07;3.97;;;;;;;14.51;100.00;101739.22;4994174;28;20058;-86
2022/07/23 00:36:25;;;;;;;6.63;3.75;;;;;;;14.52;100.00;101743.56;4994590;28;20091;-86
2022/07/23 00:38:50;;;;;;;7.35;4.00;;;;;;;14.47;100.00;101746.22;4994220;28;20075;-86
2022/07/23 00:41:16;;;;;;;4.60;3.33;;;;;;;14.42;100.00;101738.13;4994492;28;20481;-86
2022/07/23 00:43:42;;;;;;;5.22;3.90;;;;;;;14.36;100.00;101738.09;4994094;28;20050;-86
2022/07/23 00:46:07;;;;;;;7.03;4.80;;;;;;;14.33;100.00;101749.38;4995675;28;20053;-86
2022/07/23 00:48:33;;;;;;;7.07;4.40;;;;;;;14.27;100.00;101739.63;4995609;28;20474;-86
2022/07/23 00:50:59;;;;;;;8.27;4.65;;;;;;;14.23;100.00;101735.88;5018029;28;20014;-86
2022/07/23 00:53:24;;;;;;;5.60;4.13;;;;;;;14.20;100.00;101739.88;5018213;28;20033;-86
2022/07/23 00:55:50;;;;;;;6.73;4.80;;;;;;;14.17;100.00;101737.69;5018659;28;20028;-86
2022/07/23 00:58:18;;;;;;;5.80;4.50;;;;;;;14.13;100.00;101741.16;5018467;28;20026;-86
2022/07/23 01:00:43;;;;;;;8.93;5.20;;;;;;;14.05;100.00;101745.16;5018638;28;20040;-86
2022/07/23 01:03:09;;;;;;;9.83;4.93;;;;;;;14.03;100.00;101740.03;5005730;28;20117;-87
2022/07/23 01:05:34;;;;;;;6.40;4.73;;;;;;;14.01;100.00;101739.47;4993390;28;20022;-86
2022/07/23 01:08:00;;;;;;;5.13;4.63;;;;;;;13.99;100.00;101746.19;4976173;28;20122;-85
2022/07/23 01:10:32;;;;;;;7.47;4.90;;;;;;;13.95;100.00;101735.13;4994515;28;20306;-86
2022/07/23 01:13:05;;;;;;;7.90;4.72;;;;;;;13.92;100.00;101731.06;4997838;28;20485;-86
2022/07/23 01:15:33;;;;;;;6.47;4.72;;;;;;;13.87;100.00;101731.03;4993132;28;20121;-86
2022/07/23 01:17:59;;;;;;;7.00;5.05;;;;;;;13.84;100.00;101730.75;4993581;28;20030;-86
2022/07/23 01:20:24;;;;;;;7.45;4.80;;;;;;;13.84;100.00;101726.16;4993758;28;20070;-86
2022/07/23 01:22:52;;;;;;;5.90;4.73;;;;;;;13.81;100.00;101728.56;4993789;28;20027;-86
2022/07/23 01:25:17;;;;;;;7.93;5.15;;;;;;;13.75;100.00;101731.19;4992855;28;20031;-86
2022/07/23 01:27:43;;;;;;;6.97;5.13;;;;;;;13.73;100.00;101725.25;4993494;28;20033;-86
2022/07/23 01:30:09;;;;;;;9.77;4.82;;;;;;;13.74;100.00;101724.19;4992245;28;20482;-86
2022/07/23 01:32:34;;;;;;;7.57;4.93;;;;;;;13.71;100.00;101724.69;4993186;28;20037;-86
2022/07/23 01:35:00;;;;;;;6.27;4.97;;;;;;;13.68;100.00;101735.19;4992514;28;20026;-86
2022/07/23 01:37:25;;;;;;;8.10;4.90;;;;;;;13.59;100.00;101724.88;4992803;28;20034;-86
2022/07/23 01:39:51;;;;;;;6.70;4.72;;;;;;;13.57;100.00;101720.81;4993103;28;20397;-86
2022/07/23 01:42:16;;;;;;;10.53;5.23;;;;;;;13.53;100.00;101725.06;4992545;28;20406;-86
2022/07/23 01:44:42;;;;;;;9.77;5.07;;;;;;;13.48;100.00;101720.47;4992533;28;20042;-86
2022/07/23 01:47:07;;;;;;;7.90;5.20;;;;;;;13.45;100.00;101721.78;4993034;28;20053;-86
2022/07/23 01:49:32;;;;;;;6.43;4.63;;;;;;;13.40;100.00;101729.81;4992588;28;20348;-86
2022/07/23 01:52:00;;;;;;;5.53;5.03;;;;;;;13.36;100.00;101719.78;4992388;28;20484;-86
2022/07/23 01:54:31;;;;;;;7.18;4.93;;;;;;;13.32;100.00;101727.56;4992422;28;20026;-85
2022/07/23 01:56:57;;;;;;;6.35;5.10;;;;;;;13.34;100.00;101736.19;4992587;28;20489;-86
2022/07/23 01:59:22;;;;;;;12.10;5.70;;;;;;;13.32;100.00;101727.56;4992637;28;20022;-86
2022/07/23 02:01:50;;;;;;;6.05;4.93;;;;;;;13.28;100.00;101726.44;4991945;28;20586;-86
2022/07/23 02:04:16;;;;;;;7.65;5.38;;;;;;;13.33;100.00;101719.22;4990866;28;20031;-86
2022/07/23 02:06:41;;;;;;;6.32;5.07;;;;;;;13.31;100.00;101721.34;4992165;28;20089;-86
2022/07/23 02:09:08;;;;;;;6.70;5.20;;;;;;;13.28;100.00;101710.28;4992353;28;20019;-86
2022/07/23 02:11:33;;;;;;;5.75;5.05;;;;;;;13.23;100.00;101719.13;4994204;28;20023;-85
2022/07/23 02:13:59;;;;;;;7.43;5.00;;;;;;;13.18;100.00;101717.19;4991908;28;20085;-85
2022/07/23 02:16:24;;;;;;;9.10;5.27;;;;;;;13.17;100.00;101709.38;4992346;28;20030;-85
2022/07/23 02:18:49;;;;;;;8.57;4.90;;;;;;;13.09;100.00;101713.34;4992223;28;20065;-86
2022/07/23 02:21:14;;;;;;;9.50;5.00;;;;;;;13.09;100.00;101707.13;4992502;28;20474;-86
2022/07/23 02:23:40;;;;;;;6.97;4.87;;;;;;;13.09;100.00;101710.66;4991882;28;20022;-85
2022/07/23 02:26:05;;;;;;;10.32;5.00;;;;;;;13.06;100.00;101708.47;4992304;28;20109;-86
2022/07/23 02:28:31;;;;;;;7.50;5.00;;;;;;;13.01;100.00;101709.22;4992126;28;20034;-85
2022/07/23 02:30:56;;;;;;;7.32;5.10;;;;;;;13.03;100.00;101708.97;4992648;28;20026;-86
2022/07/23 02:33:22;;;;;;;10.50;5.23;;;;;;;12.98;100.00;101712.41;4991715;28;20049;-85
2022/07/23 02:35:49;;;;;;;12.43;5.60;;;;;;;12.98;100.00;101716.97;4992198;28;20161;-85
2022/07/23 02:38:15;;;;;;;6.60;5.28;;;;;;;12.95;100.00;101704.03;4992182;28;20034;-85
2022/07/23 02:40:40;;;;;;;7.50;5.23;;;;;;;12.94;100.00;101708.59;4992179;28;20041;-86
2022/07/23 02:43:05;;;;;;;7.77;5.37;;;;;;;12.88;100.00;101706.91;4994694;28;20101;-86
2022/07/23 02:45:31;;;;;;;8.23;5.60;;;;;;;12.89;100.00;101711.22;4997668;28;20505;-86
2022/07/23 02:47:56;;;;;;;8.23;5.13;;;;;;;12.86;100.00;101717.13;4997869;28;20324;-85
2022/07/23 02:50:23;;;;;;;8.27;5.50;;;;;;;12.85;100.00;101712.81;4997311;28;20787;-85
2022/07/23 02:52:48;;;;;;;6.60;5.90;;;;;;;12.85;100.00;101726.25;5000458;28;20045;-86
2022/07/23 02:55:13;;;;;;;10.90;5.67;;;;;;;12.80;100.00;101716.22;4998659;28;20286;-86
2022/07/23 02:57:39;;;;;;;11.53;6.37;;;;;;;12.76;100.00;101725.06;5000947;28;20486;-85
2022/07/23 03:00:05;;;;;;;6.57;5.37;;;;;;;12.78;100.00;101720.25;4997546;28;20112;-85
2022/07/23 03:02:31;;;;;;;9.25;5.70;;;;;;;12.75;100.00;101726.94;4996046;28;20031;-85
2022/07/23 03:04:56;;;;;;;9.17;5.50;;;;;;;12.75;100.00;101720.75;4995029;28;20033;-86
2022/07/23 03:07:22;;;;;;;7.15;5.68;;;;;;;12.71;100.00;101723.94;4994347;28;20022;-86
2022/07/23 03:09:47;;;;;;;9.20;5.90;;;;;;;12.68;100.00;101726.31;4993976;28;20033;-86
2022/07/23 03:12:13;;;;;;;8.00;5.43;;;;;;;12.65;100.00;101726.81;4992886;28;20026;-85
2022/07/23 03:14:39;;;;;;;6.43;5.20;;;;;;;12.56;100.00;101724.56;4975026;28;20026;-86
2022/07/23 03:17:04;;;;;;;9.77;5.37;;;;;;;12.56;100.00;101731.81;4992833;28;20031;-86
2022/07/23 03:19:29;;;;;;;10.97;6.57;;;;;;;12.59;100.00;101731.31;4992202;28;20081;-86
2022/07/23 03:21:56;;;;;;;8.98;5.82;;;;;;;12.56;100.00;101729.94;4992406;28;20117;-86
2022/07/23 03:24:23;;;;;;;9.27;5.70;;;;;;;12.49;100.00;101731.97;4992278;28;20034;-85
2022/07/23 03:26:49;;;;;;;8.03;5.97;;;;;;;12.49;100.00;101731.97;4992657;28;20268;-86
2022/07/23 03:29:14;;;;;;;6.57;5.30;;;;;;;12.47;100.00;101726.03;4992344;28;20035;-86
2022/07/23 03:31:39;;;;;;;8.67;5.80;;;;;;;12.49;100.00;101731.19;4991963;28;20027;-85
2022/07/23 03:34:04;;;;;;;8.47;5.47;;;;;;;12.45;100.00;101732.75;4991662;28;20146;-85
2022/07/23 03:36:30;;;;;;;9.87;5.97;;;;;;;12.39;100.00;101742.59;4992533;28;20025;-85
2022/07/23 03:38:55;;;;;;;6.37;5.40;;;;;;;12.32;100.00;101739.28;4992780;28;20505;-85
2022/07/23 03:41:20;;;;;;;12.20;5.73;;;;;;;12.27;100.00;101727.38;4993024;28;20026;-86
2022/07/23 03:43:46;;;;;;;7.47;5.70;;;;;;;12.25;100.00;101737.56;4996878;28;20313;-85
2022/07/23 03:46:12;;;;;;;9.35;6.10;;;;;;;12.25;100.00;101739.44;4994158;28;20507;-85
2022/07/23 03:48:37;;;;;;;8.20;6.07;;;;;;;12.21;100.00;101735.63;4992479;28;20089;-85
2022/07/23 03:51:03;;;;;;;10.40;6.67;;;;;;;12.20;100.00;101740.19;4992136;28;20386;-85
2022/07/23 03:53:28;;;;;;;11.75;6.10;;;;;;;12.19;100.00;101730.50;4993235;28;20070;-85
2022/07/23 03:55:53;;;;;;;7.50;5.43;;;;;;;12.20;100.00;101737.50;4995052;28;20026;-85
2022/07/23 03:58:19;;;;;;;10.23;6.17;;;;;;;12.19;100.00;101745.81;4995021;28;20078;-85
2022/07/23 04:00:44;;;;;;;9.23;6.30;;;;;;;12.18;100.00;101736.09;4994851;28;20031;-86
2022/07/23 04:03:10;;;;;;;8.17;6.30;;;;;;;12.15;100.00;101732.06;4994938;28;20496;-85
2022/07/23 04:05:36;;;;;;;8.02;6.10;;;;;;;12.17;100.00;101735.31;4994601;28;20102;-86
2022/07/23 04:08:01;;;;;;;10.70;6.20;;;;;;;12.19;100.00;101745.81;4995051;28;20846;-85
2022/07/23 04:10:26;;;;;;;7.40;6.07;;;;;;;12.19;100.00;101749.31;4994761;28;20099;-86
2022/07/23 04:12:52;;;;;;;11.13;6.57;;;;;;;12.18;100.00;101742.31;4994812;28;20036;-85
2022/07/23 04:15:17;;;;;;;9.53;5.90;;;;;;;12.21;100.00;101744.50;4994433;28;20517;-85
2022/07/23 04:17:43;;;;;;;7.90;5.77;;;;;;;12.23;100.00;101745.06;4994696;28;20030;-85
2022/07/23 04:20:10;;;;;;;9.38;6.78;;;;;;;12.24;100.00;101743.19;4977029;28;20034;-85
2022/07/23 04:22:35;;;;;;;12.43;7.38;;;;;;;12.31;100.00;101757.28;4994474;28;20105;-85
2022/07/23 04:25:01;;;;;;;9.35;7.65;;;;;;;12.41;100.00;101756.63;4994062;28;20486;-86
2022/07/23 04:27:26;;;;;;;11.97;7.37;;;;;;;12.45;100.00;101754.25;4994431;28;20030;-86
2022/07/23 04:29:51;;;;;;;11.20;7.67;;;;;;;12.61;100.00;101768.69;4995124;28;20038;-86
2022/07/23 04:32:17;;;;;;;10.67;7.53;;;;;;;12.66;100.00;101758.84;4994468;28;20034;-85
2022/07/23 04:34:42;;;;;;;16.97;8.63;;;;;;;12.74;100.00;101760.28;4994492;28;20030;-85
2022/07/23 04:37:07;;;;;;;12.13;8.17;;;;;;;12.78;100.00;101765.97;4994367;28;20029;-86
2022/07/23 04:39:35;;;;;;;11.17;8.60;;;;;;;12.81;100.00;101765.47;4994248;28;20401;-86
2022/07/23 04:42:00;;;;;;;10.90;8.45;;;;;;;12.84;100.00;101763.09;4998171;28;20117;-85
2022/07/23 04:44:25;;;;;;;14.02;8.63;;;;;;;12.87;100.00;101770.66;4995047;28;20061;-86
2022/07/23 04:46:52;;;;;;;11.20;8.47;;;;;;;12.94;100.00;101780.44;4994899;28;20437;-86
2022/07/23 04:49:17;;;;;;;12.70;8.52;;;;;;;13.00;100.00;101784.78;4994609;28;20052;-85
2022/07/23 04:51:43;;;;;;;16.33;9.43;;;;;;;13.05;100.00;101787.53;4994119;28;20482;-86
2022/07/23 04:54:08;;;;;;;13.93;9.53;;;;;;;13.09;100.00;101777.91;4993570;28;20030;-84
2022/07/23 04:56:34;;;;;;;13.60;9.27;;;;;;;13.13;100.00;101781.72;4993562;28;20037;-85
2022/07/23 04:59:00;;;;;;;13.73;8.90;;;;;;;13.23;100.00;101783.72;4993702;28;20058;-85
2022/07/23 05:01:25;;;;;;;12.83;8.93;;;;;;;13.43;100.00;101788.53;4993553;28;20094;-85
2022/07/23 05:03:51;;;;;;;14.60;9.70;;;;;;;13.85;100.00;101784.34;4991849;28;20034;-85
2022/07/23 05:06:16;;;;;;;12.70;9.10;;;;;;;14.63;100.00;101782.19;4993514;28;20042;-85
2022/07/23 05:08:41;;;;;;;11.18;7.75;;;;;;;15.43;100.00;101789.25;4993370;28;20015;-85
2022/07/23 05:11:07;;;;;;;13.40;7.60;;;;;;;16.14;96.27;101798.50;4992893;28;20046;-85
2022/07/23 05:13:32;;;;;;;11.77;8.10;;;;;;;16.74;92.16;101794.31;4993101;28;20031;-85
2022/07/23 05:15:57;;;;;;;9.70;7.53;;;;;;;17.28;88.59;101792.75;4993400;28;20046;-85
2022/07/23 05:18:23;;;;;;;11.50;7.80;;;;;;;17.66;85.88;101798.47;4993680;28;20504;-85
2022/07/23 05:20:48;;;;;;;10.55;7.63;;;;;;;18.06;84.01;101797.66;4993470;28;20165;-85
2022/07/23 05:23:13;;;;;;;12.73;8.17;;;;;;;18.37;82.23;101798.13;4993397;28;20050;-85
2022/07/23 05:25:39;;;;;;;12.70;7.40;;;;;;;18.74;80.13;101815.66;4993199;28;20022;-85
2022/07/23 05:28:05;;;;;;;8.70;7.80;;;;;;;19.18;78.92;101811.06;4992968;28;20038;-86
2022/07/23 05:30:31;;;;;;;10.93;7.10;;;;;;;19.59;76.23;101811.56;4993146;28;20015;-86
2022/07/23 05:32:56;;;;;;;9.07;7.32;;;;;;;19.88;74.54;101813.34;4993558;28;20034;-86
2022/07/23 05:35:22;;;;;;;10.20;6.50;;;;;;;19.89;72.89;101809.53;4992673;28;20056;-86
2022/07/23 05:37:47;;;;;;;9.57;6.93;;;;;;;20.05;72.93;101815.50;4993063;28;20420;-86
2022/07/23 05:40:13;;;;;;;9.40;7.43;;;;;;;20.06;72.04;101815.22;4992683;28;20074;-86
2022/07/23 05:42:39;;;;;;;10.17;7.03;;;;;;;20.18;72.11;101824.81;4993119;28;20022;-86
2022/07/23 05:45:06;;;;;;;9.53;6.90;;;;;;;20.22;72.40;101829.34;4992886;28;20344;-86
2022/07/23 05:47:43;;;;;;;9.32;7.00;;;;;;;20.37;72.89;101831.00;4992675;28;20066;-86
2022/07/23 05:50:09;;;;;;;9.57;6.78;;;;;;;20.41;70.32;101821.13;4992976;28;20026;-86
2022/07/23 05:52:34;;;;;;;7.55;6.78;;;;;;;20.24;71.09;101826.34;4992830;28;20030;-86
2022/07/23 05:54:59;;;;;;;12.47;7.20;;;;;;;19.96;71.13;101829.78;4992508;28;20034;-86
2022/07/23 05:57:24;;;;;;;8.50;6.47;;;;;;;19.78;71.89;101836.03;4992639;28;20026;-86
2022/07/23 05:59:50;;;;;;;12.13;6.43;;;;;;;19.65;71.39;101829.44;4992741;28;20019;-86
2022/07/23 06:02:15;;;;;;;10.97;6.53;;;;;;;19.40;73.59;101827.91;4992424;28;20105;-86
2022/07/23 06:04:40;;;;;;;11.00;5.90;;;;;;;19.03;73.87;101830.28;4992406;28;20101;-86
2022/07/23 06:07:05;;;;;;;6.33;5.53;;;;;;;18.76;75.43;101840.59;4992373;28;20662;-85
2022/07/23 06:09:31;;;;;;;8.07;5.30;;;;;;;18.49;76.12;101840.38;4975082;28;20367;-85
2022/07/23 06:11:56;;;;;;;7.60;6.10;;;;;;;18.26;77.89;101840.03;4992578;28;20382;-86
2022/07/23 06:14:21;;;;;;;10.47;6.17;;;;;;;18.13;79.27;101839.63;4991842;28;20029;-86
2022/07/23 06:16:47;;;;;;;11.17;6.17;;;;;;;18.05;79.96;101842.13;4991712;28;20026;-85
2022/07/23 06:19:12;;;;;;;7.93;6.10;;;;;;;17.95;79.42;101835.66;4992410;28;20037;-85
2022/07/23 06:21:37;;;;;;;7.95;5.78;;;;;;;17.86;79.94;101845.50;4992516;28;20482;-86
2022/07/23 06:24:03;;;;;;;10.37;6.27;;;;;;;17.76;80.63;101840.94;4991401;28;20049;-86
2022/07/23 06:26:28;;;;;;;7.47;5.50;;;;;;;17.74;80.77;101836.88;4992147;28;20032;-86
2022/07/23 06:28:53;;;;;;;7.80;5.60;;;;;;;17.71;80.62;101841.78;4992350;28;20034;-85
2022/07/23 06:31:19;;;;;;;6.60;4.77;;;;;;;17.59;80.22;101835.91;4992261;28;20113;-85
2022/07/23 06:33:44;;;;;;;7.88;5.10;;;;;;;17.73;82.04;101841.50;4991663;28;20034;-86
2022/07/23 06:36:09;;;;;;;8.70;5.90;;;;;;;17.85;82.09;101846.59;4991980;28;20034;-86
2022/07/23 06:38:35;;;;;;;10.53;5.77;;;;;;;17.92;81.51;101844.34;4991656;28;20023;-86
2022/07/23 06:41:00;;;;;;;9.13;5.43;;;;;;;17.98;81.50;101842.47;4991738;28;20038;-85
2022/07/23 06:43:25;;;;;;;8.67;5.27;;;;;;;18.06;81.15;101843.75;4991721;28;20044;-86
2022/07/23 06:45:51;;;;;;;7.83;5.67;;;;;;;18.08;80.33;101846.97;4992001;28;20357;-85
2022/07/23 06:48:16;;;;;;;8.03;5.23;;;;;;;18.16;80.78;101844.47;4993708;28;20038;-86
2022/07/23 06:50:41;;;;;;;7.03;5.03;;;;;;;18.18;79.30;101844.19;4993680;28;20026;-85
2022/07/23 06:53:06;;;;;;;7.73;4.50;;;;;;;17.98;76.64;101843.25;4992750;28;20042;-85
2022/07/23 06:55:32;;;;;;;5.53;4.90;;;;;;;17.99;80.16;101852.19;4992786;28;20030;-85
2022/07/23 06:57:57;;;;;;;7.03;4.70;;;;;;;18.04;78.65;101848.63;4991985;28;20049;-85
2022/07/23 07:00:26;;;;;;;6.47;4.90;;;;;;;18.15;78.56;101856.41;4992187;28;20405;-85
2022/07/23 07:02:53;;;;;;;7.00;4.43;;;;;;;18.39;78.63;101852.13;4974834;28;20647;-85
2022/07/23 07:05:18;;;;;;;8.18;5.10;;;;;;;18.50;78.29;101853.63;4991604;28;20038;-85
2022/07/23 07:07:44;;;;;;;8.60;4.83;;;;;;;18.54;77.04;101860.13;4991701;28;20022;-86
2022/07/23 07:10:09;;;;;;;9.50;4.97;;;;;;;18.50;75.45;101848.22;4974492;28;20467;-85
2022/07/23 07:12:34;;;;;;;11.23;5.07;;;;;;;18.57;76.36;101854.13;4991601;28;20030;-85
2022/07/23 07:14:59;;;;;;;5.93;4.50;;;;;;;18.61;76.17;101844.31;4991747;28;20284;-85
2022/07/23 07:17:25;;;;;;;6.20;5.10;;;;;;;18.63;76.64;101849.44;4992032;28;20482;-85
2022/07/23 07:19:51;;;;;;;11.17;5.27;;;;;;;18.70;74.89;101844.50;4992488;28;20113;-85
2022/07/23 07:22:16;;;;;;;8.40;4.82;;;;;;;18.75;73.02;101843.63;4992206;28;20397;-85
2022/07/23 07:24:41;;;;;;;8.73;4.53;;;;;;;18.84;74.59;101839.16;4992122;28;20023;-85
2022/07/23 07:27:06;;;;;;;8.37;4.20;;;;;;;18.77;73.73;101849.56;4993903;28;20114;-85
2022/07/23 07:29:32;;;;;;;8.30;4.60;;;;;;;18.92;74.11;101857.53;4996964;28;20030;-85
2022/07/23 07:31:57;;;;;;;6.33;4.37;;;;;;;18.86;73.61;101855.97;5011006;28;20073;-85
2022/07/23 07:34:22;;;;;;;4.83;3.93;;;;;;;18.91;72.42;101858.63;5019253;28;20720;-85
2022/07/23 07:36:48;;;;;;;5.80;4.77;;;;;;;18.97;73.41;101866.75;5019877;28;20074;-85
2022/07/23 07:39:14;;;;;;;6.00;4.22;;;;;;;19.03;72.96;101866.41;5019614;28;20018;-85
2022/07/23 07:41:39;;;;;;;7.83;4.60;;;;;;;19.14;72.98;101867.09;5020027;28;20014;-85
2022/07/23 07:44:04;;;;;;;8.30;5.10;;;;;;;19.35;71.89;101864.91;5008946;28;20289;-85
2022/07/23 07:46:30;;;;;;;7.13;4.47;;;;;;;19.47;70.01;101853.63;4996606;28;20101;-85
2022/07/23 07:48:55;;;;;;;7.60;4.60;;;;;;;19.45;69.89;101861.25;4996196;28;20030;-85
2022/07/23 07:51:21;;;;;;;6.33;4.87;;;;;;;19.44;71.38;101865.06;4996230;28;20565;-85
2022/07/23 07:53:47;;;;;;;8.33;4.87;;;;;;;19.55;71.18;101862.19;4995345;28;20405;-85
2022/07/23 07:56:12;;;;;;;8.35;4.35;;;;;;;19.75;70.48;101856.47;4995543;28;20307;-85
2022/07/23 07:58:38;;;;;;;5.97;4.70;;;;;;;19.95;70.61;101857.28;4995634;28;20026;-86
2022/07/23 08:01:03;;;;;;;7.03;4.60;;;;;;;20.18;70.32;101863.69;4995512;28;20033;-85
2022/07/23 08:03:29;;;;;;;7.93;5.03;;;;;;;20.20;67.13;101864.19;4995407;28;20034;-85
2022/07/23 08:05:54;;;;;;;7.32;4.50;;;;;;;20.32;67.56;101871.91;4998517;28;20032;-86
2022/07/23 08:08:20;;;;;;;7.97;5.30;;;;;;;20.29;65.90;101880.66;5005686;28;20478;-85
2022/07/23 08:10:45;;;;;;;10.30;5.30;;;;;;;20.23;66.65;101870.97;5007637;28;20291;-85
2022/07/23 08:13:14;;;;;;;8.63;5.38;;;;;;;20.39;67.55;101866.06;5007032;28;20092;-85
2022/07/23 08:15:40;;;;;;;11.10;4.50;;;;;;;20.69;66.71;101875.59;5013471;28;20014;-85
2022/07/23 08:18:05;;;;;;;7.37;5.10;;;;;;;20.85;65.64;101880.75;5019665;28;20286;-85
2022/07/23 08:20:31;;;;;;;7.23;5.40;;;;;;;20.81;62.63;101883.28;5019204;28;20033;-85
2022/07/23 08:23:02;;;;;;;7.00;4.90;;;;;;;20.99;64.71;101878.88;5015120;28;20038;-86
2022/07/23 08:25:30;;;;;;;9.25;4.43;;;;;;;21.16;63.92;101880.94;5001536;28;20061;-86
2022/07/23 08:27:56;;;;;;;7.88;5.13;;;;;;;21.21;62.16;101874.59;4998333;28;20030;-85
2022/07/23 08:30:24;;;;;;;5.50;4.93;;;;;;;21.30;62.98;101886.41;4995348;28;20065;-86
2022/07/23 08:32:59;;;;;;;13.45;5.25;;;;;;;21.43;60.29;101883.94;4996300;28;20034;-86
2022/07/23 08:35:35;;;;;;;8.63;5.05;;;;;;;21.63;62.58;101890.91;4997074;28;20033;-85
2022/07/23 08:38:07;;;;;;;8.07;5.37;;;;;;;21.63;59.92;101886.25;4998854;28;20030;-84
2022/07/23 08:40:36;;;;;;;7.50;4.90;;;;;;;21.86;59.88;101894.47;4995134;28;20309;-85
2022/07/23 08:43:05;;;;;;;8.57;4.95;;;;;;;21.78;59.74;101898.72;4997194;28;20030;-86
2022/07/23 08:45:31;;;;;;;8.38;5.07;;;;;;;21.74;60.71;101905.09;4997072;28;20526;-85
2022/07/23 08:47:58;;;;;;;9.27;6.15;;;;;;;21.69;61.05;101894.31;4998424;28;20050;-85
2022/07/23 08:50:24;;;;;;;9.30;5.53;;;;;;;21.91;61.15;101899.78;4997747;28;20050;-85
2022/07/23 08:52:51;;;;;;;6.93;5.73;;;;;;;22.21;59.04;101905.63;4994864;28;20073;-86
2022/07/23 08:55:21;;;;;;;8.30;5.73;;;;;;;22.30;57.60;101902.13;4994704;28;20274;-84
2022/07/23 08:57:48;;;;;;;6.40;4.43;;;;;;;22.37;57.79;101902.50;4994218;28;20034;-85
2022/07/23 09:00:14;;;;;;;6.28;4.93;;;;;;;22.23;56.07;101897.09;4993958;28;20027;-85
2022/07/23 09:02:42;;;;;;;5.95;3.97;;;;;;;22.22;57.07;101907.22;4994186;28;20113;-84
2022/07/23 09:05:08;;;;;;;8.23;4.30;;;;;;;22.31;58.12;101904.56;4993393;28;20461;-85
2022/07/23 09:07:34;;;;;;;6.38;4.07;;;;;;;22.43;56.49;101905.91;4993611;28;20426;-85
2022/07/23 09:10:10;;;;;;;7.43;4.23;;;;;;;22.32;56.88;101899.88;4993624;28;20029;-85
2022/07/23 09:12:37;;;;;;;8.23;4.70;;;;;;;22.26;56.95;101901.16;4993563;28;20544;-85
2022/07/23 09:15:07;;;;;;;7.20;4.60;;;;;;;22.13;56.78;101889.97;4975310;28;20049;-85
2022/07/23 09:17:43;;;;;;;9.35;4.45;;;;;;;22.12;58.11;101891.09;4993331;28;20019;-85
2022/07/23 09:20:13;;;;;;;10.30;3.17;;;;;;;22.43;56.48;101884.91;4993433;28;20018;-85
2022/07/23 09:22:45;;;;;;;6.40;3.67;;;;;;;22.78;56.34;101890.53;4993359;28;20402;-85
2022/07/23 09:25:16;;;;;;;6.53;4.60;;;;;;;22.78;54.86;101879.59;4992839;28;20030;-85
2022/07/23 09:28:02;;;;;;;7.53;4.60;;;;;;;22.74;55.81;101878.59;4994331;28;20788;-85
2022/07/23 09:30:30;;;;;;;7.28;4.10;;;;;;;22.72;54.45;101885.50;4994028;28;20062;-85
2022/07/23 09:33:15;;;;;;;9.13;4.05;;;;;;;22.92;56.29;101887.66;4993494;28;20445;-85
2022/07/23 09:35:53;;;;;;;6.68;3.80;;;;;;;22.72;53.09;101883.56;4975963;28;20493;-85
2022/07/23 09:38:20;;;;;;;6.85;3.50;;;;;;;22.35;52.00;101878.25;4993824;28;20258;-85
2022/07/23 09:41:05;;;;;;;6.35;3.92;;;;;;;22.41;53.03;101892.56;4995394;28;20101;-85
2022/07/23 09:43:31;;;;;;;7.63;3.42;;;;;;;22.70;52.66;101891.28;4994603;28;20028;-85
2022/07/23 09:46:24;;;;;;;7.37;4.10;;;;;;;22.98;54.53;101899.25;4994900;28;20109;-84
2022/07/23 09:48:51;;;;;;;5.97;3.90;;;;;;;22.99;53.90;101893.47;4992847;28;20224;-85
2022/07/23 09:53:54;;;;;;;6.00;4.70;;;;;;;23.25;52.11;101908.34;4992528;28;20034;-85
2022/07/23 09:59:43;;;;;;;4.90;3.92;;;;;;;23.93;52.07;101894.22;4992414;28;20048;-85
2022/07/23 10:02:11;;;;;;;6.45;4.18;;;;;;;24.13;53.02;101902.91;4992441;28;20054;-85
2022/07/23 10:04:37;;;;;;;5.53;3.97;;;;;;;24.26;50.05;101896.47;4991962;28;20022;-85
2022/07/23 10:07:05;;;;;;;4.53;3.90;;;;;;;24.18;49.11;101897.28;4992092;28;20485;-85
2022/07/23 10:09:33;;;;;;;5.60;3.42;;;;;;;24.37;51.46;101899.66;4992290;28;20030;-85
2022/07/23 10:14:52;;;;;;;6.93;4.18;;;;;;;24.85;47.24;101894.19;4968822;28;20473;-85
2022/07/23 10:17:18;;;;;;;6.30;3.93;;;;;;;24.84;48.93;101896.09;4992360;28;20018;-85
2022/07/23 10:19:44;;;;;;;6.80;3.50;;;;;;;24.78;48.61;101895.50;4992214;28;20026;-85
2022/07/23 10:22:13;;;;;;;4.00;3.58;;;;;;;24.70;48.73;101896.34;4992631;28;20089;-84
2022/07/23 10:24:57;;;;;;;6.90;3.85;;;;;;;24.67;49.22;101899.72;4977179;28;20113;-85
2022/07/23 10:27:37;;;;;;;4.90;3.50;;;;;;;24.50;47.46;101895.09;4996100;28;20050;-85
2022/07/23 10:30:30;;;;;;;5.60;3.65;;;;;;;24.56;50.52;101893.78;4992790;28;20026;-85
2022/07/23 10:33:05;;;;;;;5.75;3.60;;;;;;;24.63;50.48;101894.09;4986288;28;20069;-85
2022/07/23 10:35:48;;;;;;;4.75;3.10;;;;;;;24.88;48.21;101899.81;4991825;28;20066;-85
2022/07/23 10:38:21;;;;;;;7.40;4.40;;;;;;;24.82;48.45;101897.59;4991792;28;20022;-85
2022/07/23 10:41:01;;;;;;;5.73;3.60;;;;;;;24.96;48.65;101898.16;4992200;28;20053;-85
2022/07/23 10:43:28;;;;;;;3.87;3.50;;;;;;;25.15;47.21;101903.22;4991792;28;20289;-85
2022/07/23 10:45:54;;;;;;;5.57;3.42;;;;;;;25.28;47.10;101898.63;4991806;28;20458;-84
2022/07/23 10:48:20;;;;;;;5.10;3.55;;;;;;;25.38;44.49;101897.44;4991773;28;20374;-85
2022/07/23 10:51:08;;;;;;;4.00;3.30;;;;;;;25.34;45.24;101893.75;4991952;28;20043;-84
2022/07/23 10:53:51;;;;;;;4.05;2.78;;;;;;;25.44;44.38;101896.09;4991240;28;20037;-85
2022/07/23 10:56:56;;;;;;;4.13;3.58;;;;;;;25.68;45.42;101902.88;4991151;28;20033;-84
2022/07/23 10:59:22;;;;;;;5.18;3.58;;;;;;;25.68;44.36;101892.69;4991991;28;20030;-85
2022/07/23 11:01:47;;;;;;;5.27;3.03;;;;;;;26.02;44.86;101892.72;4992371;28;20022;-85
2022/07/23 11:04:13;;;;;;;4.07;3.10;;;;;;;26.13;45.05;101895.84;4995403;28;20041;-85
2022/07/23 11:06:47;;;;;;;3.85;2.80;;;;;;;26.20;45.65;101893.38;4995966;28;20018;-85
2022/07/23 11:09:26;;;;;;;5.40;2.37;;;;;;;26.44;45.46;101883.56;4995911;28;20030;-85
2022/07/23 11:12:14;;;;;;;5.90;2.35;;;;;;;26.65;46.00;101897.22;4995813;28;20037;-85
2022/07/23 11:14:57;;;;;;;5.15;3.00;;;;;;;26.86;44.71;101886.13;4995393;28;20073;-84
2022/07/23 11:17:24;;;;;;;3.13;2.60;;;;;;;26.90;43.31;101886.22;4995735;28;20034;-85
2022/07/23 11:20:08;;;;;;;4.82;3.22;;;;;;;26.88;44.14;101886.59;4978001;28;20030;-85
2022/07/23 11:22:45;;;;;;;3.55;2.65;;;;;;;26.73;42.91;101888.03;4977938;28;20030;-85
2022/07/23 11:25:13;;;;;;;2.15;1.80;;;;;;;26.60;40.82;101878.97;4977467;28;20046;-83
2022/07/23 11:27:39;;;;;;;13.52;3.30;;;;;;;26.52;42.91;101877.16;4977052;28;20034;-84
2022/07/23 11:30:06;;;;;;;4.95;2.20;;;;;;;26.74;41.36;101880.59;4995369;28;20071;-84